Riverton, Wyoming
Current Conditions -  °F | °C
As of 4:53 AM on Monday 22 Dec 2014 (Local Time) from KRIW Reporting Station
Clear Clear  
Wind Chill: 19°   Ceiling: Unl
Heat Index: 31°   Visibility: 10mi
Dew Point: 18°   Wind: 20mph
Humidity: 59%   Direction: 310°NW
Pressure: 29.75"   Gusts: NA
Location:  43.02°N, 108.38°W
Report Text: KRIW 221153Z AUTO 31017KT 10SM CLR M01/M08 A2975 RMK AO2 PK WND 30027/1056 SLP080 T10061078 10011 21022 56003
Loading
Personal Weather Stations






























Interactive Weather Map New forecast layout! Learn more

10-Day Weather Forecast

Advertisements
Track Severe Weather on mobile